METAR Analyzer

一覧表示

Hello, Guest. (Login)

RJOA/HIJ  -  広島

観測日時
2021-08-05 01:00 (UTC) (47分前)
気温
29
露点
22
湿数
7
相対湿度
66%
QNH
1009.5hPa
推定現地気圧
970.5hPa
推定海面気圧
1007.3hPa
体感温度
24.2
(無風時)
27.2
HI
32
気温前日比
+1
体感温度前日比
+0.9
HI前日比
+0.7
水平視程
>10000m
鉛直視程
データなし
雲底高度
No dense clouds
V/I
VMC (VFR)
RVR
No RVR data
卓越風
5kt from 130° (90° ~ 190°)
ガスト
No gust
降水
報告なし
その他の天気
報告なし
少しの(1/8) 積雲 @ 2500ft AGL

RJOA 050100Z 13005KT 090V190 9999 FEW025 29/22 Q1009 RMK 1CU025 A2981

RJOB/OKJ  -  岡山

観測日時
2021-08-05 01:24 (UTC) (23分前)
気温
33
露点
25
湿数
8
相対湿度
63%
QNH
1008.8hPa
推定現地気圧
980.5hPa
推定海面気圧
1006.9hPa
体感温度
29
(無風時)
30
HI
40.6
気温前日比
データなし
体感温度前日比
データなし
HI前日比
データなし
水平視程
>10000m
鉛直視程
データなし
雲底高度
No dense clouds
V/I
VMC (VFR)
RVR
No RVR data
卓越風
2kt from VRB
ガスト
No gust
降水
報告なし
その他の天気
報告なし
少しの(1/8) 積雲 @ 1500ft AGL

RJOB 050124Z VRB02KT 9999 FEW015 33/25 Q1008 RMK 1CU015 A2979

RJOR/TTJ  -  鳥取

観測日時
2021-08-05 01:00 (UTC) (47分前)
気温
31
露点
25
湿数
6
相対湿度
70.5%
QNH
1007.5hPa
推定現地気圧
1005.7hPa
推定海面気圧
1007.4hPa
体感温度
26.5
(無風時)
29.1
HI
37.7
気温前日比
±0
体感温度前日比
+0.2
HI前日比
+1.2
水平視程
>10000m
鉛直視程
データなし
雲底高度
No dense clouds
V/I
VMC (VFR)
RVR
No RVR data
卓越風
7kt from 30°
ガスト
No gust
降水
報告なし
その他の天気
報告なし
少しの(1/8) 積雲 @ 4000ft AGL

RJOR 050100Z 03007KT 9999 FEW040 31/25 Q1007 RMK 1CU040 A2975

RJOH/YGJ  -  米子(美保基地)

観測日時
2021-08-05 01:00 (UTC) (47分前)
気温
32
露点
24
湿数
8
相対湿度
62.7%
QNH
1007.1hPa
推定現地気圧
1006.6hPa
推定海面気圧
1007.1hPa
体感温度
27.2
(無風時)
29.2
HI
37.9
気温前日比
-1
体感温度前日比
-0.7
HI前日比
-0.2
水平視程
>10000m
鉛直視程
データなし
雲底高度
No dense clouds
V/I
VMC (VFR)
RVR
No RVR data
卓越風
6kt from 60°
ガスト
No gust
降水
報告なし
その他の天気
報告なし
少しの(1/8) 積雲 @ 3000ft AGL

RJOH 050100Z 06006KT 9999 FEW030 32/24 Q1007 RMK 1CU030 A2974

RJOC/IZO  -  出雲

観測日時
2021-08-05 01:23 (UTC) (24分前)
気温
34
露点
26
湿数
8
相対湿度
63.2%
QNH
1007.1hPa
推定現地気圧
1006.9hPa
推定海面気圧
1007.1hPa
体感温度
29.8
(無風時)
30.8
HI
43.6
気温前日比
データなし
体感温度前日比
データなし
HI前日比
データなし
水平視程
>10000m
鉛直視程
データなし
雲底高度
No dense clouds
V/I
VMC (VFR)
RVR
No RVR data
卓越風
4kt from 40°
ガスト
No gust
降水
報告なし
その他の天気
報告なし
少しの(1/8) 積雲 @ 2500ft AGL

RJOC 050123Z 04004KT 9999 FEW025 34/26 Q1007 RMK 1CU025 A2974

RJOW/IWJ  -  萩・石見

観測日時
2021-08-05 01:00 (UTC) (47分前)
気温
30
露点
23
湿数
7
相対湿度
66.2%
QNH
1007.5hPa
推定現地気圧
1001.1hPa
推定海面気圧
1007.2hPa
体感温度
25.4
(無風時)
28
HI
34.1
気温前日比
-1
体感温度前日比
-1.1
HI前日比
-2.4
水平視程
>10000m
鉛直視程
データなし
雲底高度
No dense clouds
V/I
VMC (VFR)
RVR
No RVR data
卓越風
5kt from 10° (340° ~ 50°)
ガスト
No gust
降水
報告なし
その他の天気
報告なし
少しの(1/8) 積雲 @ 3000ft AGL

RJOW 050100Z 01005KT 340V050 9999 FEW030 30/23 Q1007 RMK 1CU030 A2975

RJNO/OKI  -  隠岐

観測日時
2021-08-05 01:00 (UTC) (47分前)
気温
30
露点
27
湿数
3
相対湿度
84%
QNH
1008.1hPa
推定現地気圧
998.6hPa
推定海面気圧
1007.6hPa
体感温度
26.1
(無風時)
29.4
HI
38.8
気温前日比
±0
体感温度前日比
+0.3
HI前日比
+2.6
水平視程
>10000m
鉛直視程
データなし
雲底高度
No dense clouds
V/I
VMC (VFR)
RVR
No RVR data
卓越風
8kt from 70°
ガスト
No gust
降水
報告なし
その他の天気
報告なし
少しの雲 @ 1700ft AGL / 散在する雲 @ 不明な高さ

RJNO 050100Z 07008KT 9999 FEW017 SCTXXX 30/27 Q1008 RMK A2977

RJDC/UBJ  -  山口宇部

観測日時
2021-08-05 01:00 (UTC) (47分前)
気温
29
露点
25
湿数
4
相対湿度
79.1%
QNH
1007.1hPa
推定現地気圧
1006.5hPa
推定海面気圧
1007.1hPa
体感温度
24.2
(無風時)
28.2
HI
34.5
気温前日比
-1
体感温度前日比
-0.7
HI前日比
-0.6
水平視程
>10000m
鉛直視程
データなし
雲底高度
No dense clouds
V/I
VMC (VFR)
RVR
No RVR data
卓越風
10kt from 100°
ガスト
No gust
降水
報告なし
その他の天気
報告なし
少しの(1/8) 積雲 @ 1000ft AGL

RJDC 050100Z 10010KT 9999 FEW010 29/25 Q1007 RMK 1CU010 A2974

RJOI/IWK  -  岩国空港(岩国基地)

観測日時
2021-08-05 00:55 (UTC) (52分前)
気温
31.1
露点
23.3
湿数
7.8
相対湿度
63.3%
QNH
1007.5hPa
推定現地気圧
1007.1hPa
推定海面気圧
1007.4hPa
体感温度
26.6
(無風時)
28.6
HI
35.9
気温前日比
+0.5
体感温度前日比
+0.9
HI前日比
+2.1
水平視程
>10000m
鉛直視程
データなし
雲底高度
No dense clouds
V/I
VMC (VFR)
RVR
No RVR data
卓越風
4kt from 70°
ガスト
No gust
降水
報告なし
その他の天気
報告なし
少しの雲 @ 2500ft AGL / 少しの雲 @ 30000ft AGL

RJOI 050055Z 07004KT 9999 FEW025 FEW300 31/23 A2975 RMK SLP074 T03110233

RJOF  -  防府北基地

観測日時
2021-08-05 01:00 (UTC) (47分前)
気温
31
露点
23
湿数
8
相対湿度
62.5%
QNH
1007.5hPa
推定現地気圧
1007.3hPa
推定海面気圧
1007.5hPa
体感温度
26.2
(無風時)
28.5
HI
35.5
気温前日比
±0
体感温度前日比
+0.8
HI前日比
+1.8
水平視程
>10000m
鉛直視程
データなし
雲底高度
No dense clouds
V/I
VMC (VFR)
RVR
No RVR data
卓越風
5kt from 130°
ガスト
No gust
降水
報告なし
その他の天気
報告なし
少しの(1/8) 積雲 @ 2000ft AGL

RJOF 050100Z 13005KT 9999 FEW020 31/23 Q1007 RMK 1CU020 A2975

RJOZ  -  小月航空基地

観測日時
2021-08-05 01:00 (UTC) (47分前)
気温
30
露点
25
湿数
5
相対湿度
74.6%
QNH
1007.1hPa
推定現地気圧
1006.6hPa
推定海面気圧
1007.1hPa
体感温度
25.3
(無風時)
28.7
HI
36.2
気温前日比
-3
体感温度前日比
-2.4
HI前日比
-3.1
水平視程
>10000m
鉛直視程
データなし
雲底高度
No dense clouds
V/I
VMC (VFR)
RVR
No RVR data
卓越風
9kt from 150°
ガスト
No gust
降水
報告なし
その他の天気
報告なし
少しの(1/8) 積雲 @ 2500ft AGL

RJOZ 050100Z 15009KT 9999 FEW025 30/25 Q1007 RMK 1CU025 A2974

RJOT/TAK  -  高松

観測日時
2021-08-05 01:35 (UTC) (12分前)
気温
33
露点
25
湿数
8
相対湿度
63%
QNH
1008.5hPa
推定現地気圧
986.5hPa
推定海面気圧
1007.0hPa
体感温度
28.4
(無風時)
30
HI
40.6
気温前日比
データなし
体感温度前日比
データなし
HI前日比
データなし
水平視程
>10000m
鉛直視程
データなし
雲底高度
No dense clouds
V/I
VMC (VFR)
RVR
No RVR data
卓越風
6kt from 60° (10° ~ 140°)
ガスト
No gust
降水
報告なし
その他の天気
報告なし
少しの(2/8) 積雲 @ 2500ft AGL

RJOT 050135Z 06006KT 010V140 9999 FEW025 33/25 Q1008 RMK 2CU025 A2978

RJOM/MYJ  -  松山

観測日時
2021-08-05 01:00 (UTC) (47分前)
気温
29
露点
25
湿数
4
相対湿度
79.1%
QNH
1007.1hPa
推定現地気圧
1006.6hPa
推定海面気圧
1007.1hPa
体感温度
25.1
(無風時)
28.2
HI
34.5
気温前日比
-2
体感温度前日比
-1.2
HI前日比
-2
水平視程
>10000m
鉛直視程
データなし
雲底高度
No dense clouds
V/I
VMC (VFR)
RVR
No RVR data
卓越風
5kt from 330°
ガスト
No gust
降水
報告なし
その他の天気
報告なし
少しの(1/8) 積雲 @ 1500ft AGL

RJOM 050100Z 33005KT 9999 FEW015 29/25 Q1007 RMK 1CU015 A2974

RJOK/KCZ  -  高知

観測日時
2021-08-05 01:00 (UTC) (47分前)
気温
29
露点
25
湿数
4
相対湿度
79.1%
QNH
1007.1hPa
推定現地気圧
1006.0hPa
推定海面気圧
1007.0hPa
体感温度
24.8
(無風時)
28.2
HI
34.5
気温前日比
-3
体感温度前日比
-2.3
HI前日比
-3.4
水平視程
>10000m
鉛直視程
データなし
雲底高度
No dense clouds
V/I
VMC (VFR)
RVR
No RVR data
卓越風
6kt from 190° (90° ~ 230°)
ガスト
No gust
降水
報告なし
その他の天気
報告なし
少しの(1/8) 積雲 @ 1500ft AGL

RJOK 050100Z 19006KT 090V230 9999 FEW015 29/25 Q1007 RMK 1CU015 A2974

RJOS/TKS  -  徳島

観測日時
2021-08-05 01:00 (UTC) (47分前)
気温
31
露点
25
湿数
6
相対湿度
70.5%
QNH
1007.5hPa
推定現地気圧
1006.2hPa
推定海面気圧
1007.4hPa
体感温度
26.8
(無風時)
29.1
HI
37.7
気温前日比
+1
体感温度前日比
+0.8
HI前日比
+1.5
水平視程
>10000m
鉛直視程
データなし
雲底高度
No dense clouds
V/I
VMC (VFR)
RVR
No RVR data
卓越風
5kt from 120° (90° ~ 150°)
ガスト
No gust
降水
報告なし
その他の天気
報告なし
少しの(1/8) 積雲 @ 2000ft AGL

RJOS 050100Z 12005KT 090V150 9999 FEW020 31/25 Q1007 RMK 1CU020 A2975

RJOP  -  小松島航空基地

観測日時
2021-08-05 01:00 (UTC) (47分前)
気温
30
露点
24
湿数
6
相対湿度
70.3%
QNH
1007.5hPa
推定現地気圧
1007.1hPa
推定海面気圧
1007.4hPa
体感温度
25.7
(無風時)
28.3
HI
35.1
気温前日比
+1
体感温度前日比
+1.5
HI前日比
+1.5
水平視程
>10000m
鉛直視程
データなし
雲底高度
No dense clouds
V/I
VMC (VFR)
RVR
No RVR data
卓越風
5kt from 30° (330° ~ 60°)
ガスト
No gust
降水
報告なし
その他の天気
報告なし
少しの(1/8) 積雲 @ 3000ft AGL

RJOP 050100Z 03005KT 330V060 9999 FEW030 30/24 Q1007 RMK 1CU030 A2975

8.3msec